Portada
METAR-TAF:

METAR-TAF

Aeroports :

Ouargla, Algèria

latitud: 31-55N, longitud: 005-24E, altitud: 141 m

Observació

L'informe es va fer fa 39 minuts, a les 02:00 UTC
Vent 5 kt del Est
Temperatura 31°C
Humitat 26%
Pressió 1011 hPa
Visibilitat 10 km o més
Escasses núvols a una alçada de 4600 ft

METAR: DAUU 160200Z 10005KT 9999 FEW046 31/09 Q1011

Hora: 03:39 (02:39 UTC)

Pronòstic

L'informe es va fer fa 3 hores i 39 minuts, a les 23:00 UTC
Pronòstic vàlid del 16 a les 00 UTC al 16 a les 09 UTC
Vent 12 kt del Est/Nord-Est
Visibilitat 10 km o més
Escasses núvols a una alçada de 4600 ft

TAF: DAUU 152300Z 1600/1609 06012KT 9999 FEW046

Observacions i pronòstics meteorològics de més de 4000 aeroports (METAR i TAF).

Les estacions disponibles són els punts grocs i vermells al mapa.

Posi el ratolí al punt desitjat per veure el nom de l'estació.

Feu clic per veure les observacions i els pronòstics meteorològics.

Per canviar el mapa: feu clic els botons verds amb una creu de color negre per apropar; al botó verd amb un guió per allunyar la imatge; o en les fletxes verdes per a mapes adjacents.


METAR-TAF: